createdAt,value
2022-12-15T00:00:05.155Z,997.50
2022-12-15T00:01:05.195Z,997.52
2022-12-15T00:02:05.297Z,997.52
2022-12-15T00:03:05.119Z,997.55
2022-12-15T00:04:05.129Z,997.58
2022-12-15T00:05:05.088Z,997.56
2022-12-15T00:06:05.185Z,997.60
2022-12-15T00:07:05.098Z,997.56
2022-12-15T00:08:05.022Z,997.62
2022-12-15T00:09:07.543Z,997.62
2022-12-15T00:10:06.061Z,997.64
2022-12-15T00:11:05.063Z,997.64
2022-12-15T00:12:04.979Z,997.63
2022-12-15T00:13:04.964Z,997.68
2022-12-15T00:14:05.918Z,997.69
2022-12-15T00:15:04.919Z,997.67
2022-12-15T00:16:05.290Z,997.68
2022-12-15T00:17:04.931Z,997.68
2022-12-15T00:18:04.937Z,997.71
2022-12-15T00:19:04.881Z,997.76
2022-12-15T00:20:04.848Z,997.74
2022-12-15T00:21:05.710Z,997.74
2022-12-15T00:22:04.959Z,997.74
2022-12-15T00:23:04.870Z,997.71
2022-12-15T00:24:04.855Z,997.70
2022-12-15T00:25:05.031Z,997.71
2022-12-15T00:26:04.920Z,997.73
2022-12-15T00:27:04.770Z,997.70
2022-12-15T00:28:05.931Z,997.72
2022-12-15T00:29:04.801Z,997.67
2022-12-15T00:30:05.359Z,997.67
2022-12-15T00:31:04.900Z,997.70
2022-12-15T00:32:04.768Z,997.68
2022-12-15T00:33:04.707Z,997.69
2022-12-15T00:34:04.792Z,997.70
2022-12-15T00:35:04.772Z,997.73
2022-12-15T00:36:04.699Z,997.70
2022-12-15T00:37:04.716Z,997.69
2022-12-15T00:38:05.551Z,997.71
2022-12-15T00:39:04.652Z,997.70
2022-12-15T00:40:04.807Z,997.68
2022-12-15T00:41:04.629Z,997.69
2022-12-15T00:42:05.349Z,997.71
2022-12-15T00:43:05.580Z,997.74
2022-12-15T00:44:04.614Z,997.78
2022-12-15T00:45:04.659Z,997.71
2022-12-15T00:46:04.634Z,997.72
2022-12-15T00:47:04.679Z,997.65
2022-12-15T00:48:05.364Z,997.64
2022-12-15T00:49:04.611Z,997.66
2022-12-15T00:50:05.419Z,997.64
2022-12-15T00:51:04.549Z,997.69
2022-12-15T00:52:04.546Z,997.67
2022-12-15T00:53:04.580Z,997.67
2022-12-15T00:54:05.190Z,997.70
2022-12-15T00:55:04.506Z,997.68
2022-12-15T00:56:04.522Z,997.71
2022-12-15T00:57:04.458Z,997.68
2022-12-15T00:58:04.423Z,997.76
2022-12-15T00:59:04.446Z,997.73
2022-12-15T01:00:04.430Z,997.80
2022-12-15T01:01:05.388Z,997.80
2022-12-15T01:02:05.404Z,997.78
2022-12-15T01:03:04.739Z,997.81
2022-12-15T01:04:04.445Z,997.77
2022-12-15T01:05:05.518Z,997.82
2022-12-15T01:06:04.399Z,997.81
2022-12-15T01:07:05.321Z,997.79
2022-12-15T01:08:04.605Z,997.80
2022-12-15T01:09:04.329Z,997.85
2022-12-15T01:10:05.550Z,997.82
2022-12-15T01:11:04.297Z,997.80
2022-12-15T01:12:04.618Z,997.83
2022-12-15T01:13:04.348Z,997.82
2022-12-15T01:14:04.300Z,997.87
2022-12-15T01:15:04.391Z,997.76
2022-12-15T01:16:04.327Z,997.82
2022-12-15T01:17:05.200Z,997.82
2022-12-15T01:18:05.280Z,997.83
2022-12-15T01:19:04.198Z,997.88
2022-12-15T01:20:04.200Z,997.87
2022-12-15T01:21:04.726Z,997.86
2022-12-15T01:22:04.720Z,997.96
2022-12-15T01:23:05.328Z,997.96
2022-12-15T01:24:04.256Z,997.98
2022-12-15T01:25:05.138Z,997.97
2022-12-15T01:26:04.114Z,998.04
2022-12-15T01:27:04.118Z,998.07
2022-12-15T01:28:05.359Z,998.03
2022-12-15T01:29:04.090Z,998.03
2022-12-15T01:30:04.099Z,998.02
2022-12-15T01:31:04.105Z,998.06
2022-12-15T01:32:04.116Z,998.06
2022-12-15T01:33:04.669Z,997.96
2022-12-15T01:34:04.406Z,998.01
2022-12-15T01:35:04.304Z,998.03
2022-12-15T01:36:03.995Z,998.12
2022-12-15T01:37:03.990Z,998.06
2022-12-15T01:38:04.011Z,998.13
2022-12-15T01:39:04.001Z,998.19
2022-12-15T01:40:04.042Z,998.12
2022-12-15T01:41:04.100Z,998.15
2022-12-15T01:42:04.005Z,998.07
2022-12-15T01:43:04.014Z,998.11
2022-12-15T01:44:03.965Z,998.07
2022-12-15T01:45:03.990Z,998.02
2022-12-15T01:46:05.168Z,998.08
2022-12-15T01:47:04.998Z,998.08
2022-12-15T01:48:03.927Z,998.03
2022-12-15T01:49:03.953Z,998.05
2022-12-15T01:50:03.834Z,998.03
2022-12-15T01:51:03.850Z,998.03
2022-12-15T01:52:03.882Z,998.06
2022-12-15T01:53:03.888Z,998.02
2022-12-15T01:54:03.887Z,998.00
2022-12-15T01:55:04.026Z,998.01
2022-12-15T01:56:03.773Z,997.98
2022-12-15T01:57:03.809Z,997.98
2022-12-15T01:58:03.818Z,997.96
2022-12-15T01:59:04.943Z,998.00
2022-12-15T02:00:04.847Z,997.97
2022-12-15T02:01:04.220Z,997.97
2022-12-15T02:02:03.960Z,997.92
2022-12-15T02:03:03.942Z,997.91
2022-12-15T02:04:03.931Z,997.95
2022-12-15T02:05:03.684Z,997.91
2022-12-15T02:06:03.868Z,997.91
2022-12-15T02:07:03.679Z,997.86
2022-12-15T02:08:03.690Z,997.87
2022-12-15T02:09:03.716Z,997.97
2022-12-15T02:10:03.637Z,997.94
2022-12-15T02:11:03.652Z,997.99
2022-12-15T02:12:04.595Z,997.99
2022-12-15T02:13:03.602Z,998.00
2022-12-15T02:14:03.600Z,998.01
2022-12-15T02:15:03.683Z,997.99
2022-12-15T02:16:03.703Z,997.93
2022-12-15T02:17:04.745Z,997.95
2022-12-15T02:18:03.667Z,997.96
2022-12-15T02:19:03.761Z,997.93
2022-12-15T02:20:03.551Z,997.89
2022-12-15T02:21:03.515Z,997.98
2022-12-15T02:22:03.505Z,997.98
2022-12-15T02:23:03.504Z,998.10
2022-12-15T02:24:03.467Z,998.09
2022-12-15T02:25:03.679Z,998.05
2022-12-15T02:26:03.485Z,997.96
2022-12-15T02:27:03.493Z,997.99
2022-12-15T02:28:03.816Z,998.04
2022-12-15T02:29:03.458Z,998.10
2022-12-15T02:30:03.935Z,998.08
2022-12-15T02:31:03.414Z,998.10
2022-12-15T02:32:04.465Z,998.10
2022-12-15T02:33:03.409Z,998.12
2022-12-15T02:34:03.342Z,998.15
2022-12-15T02:35:04.376Z,998.17
2022-12-15T02:36:03.408Z,998.18
2022-12-15T02:37:03.404Z,998.17
2022-12-15T02:38:03.335Z,998.26
2022-12-15T02:39:03.288Z,998.23
2022-12-15T02:40:03.325Z,998.23
2022-12-15T02:41:03.296Z,998.27
2022-12-15T02:42:03.273Z,998.28
2022-12-15T02:43:03.265Z,998.28
2022-12-15T02:44:04.205Z,998.27
2022-12-15T02:45:03.245Z,998.31
2022-12-15T02:46:03.310Z,998.33
2022-12-15T02:47:03.282Z,998.39
2022-12-15T02:48:03.213Z,998.35
2022-12-15T02:49:03.218Z,998.37
2022-12-15T02:50:03.238Z,998.42
2022-12-15T02:51:03.185Z,998.39
2022-12-15T02:52:03.166Z,998.40
2022-12-15T02:53:03.182Z,998.42
2022-12-15T02:54:04.139Z,998.41
2022-12-15T02:55:04.174Z,998.40
2022-12-15T02:56:04.081Z,998.44
2022-12-15T02:57:03.117Z,998.44
2022-12-15T02:58:03.168Z,998.46
2022-12-15T02:59:03.085Z,998.46
2022-12-15T03:00:03.115Z,998.42
2022-12-15T03:01:03.145Z,998.44
2022-12-15T03:02:03.319Z,998.46
2022-12-15T03:03:04.022Z,998.43
2022-12-15T03:04:03.028Z,998.44
2022-12-15T03:05:03.011Z,998.44
2022-12-15T03:06:03.317Z,998.41
2022-12-15T03:07:03.085Z,998.45
2022-12-15T03:08:04.015Z,998.43
2022-12-15T03:09:03.852Z,998.43
2022-12-15T03:10:03.141Z,998.40
2022-12-15T03:11:02.985Z,998.44
2022-12-15T03:12:02.958Z,998.46
2022-12-15T03:13:02.982Z,998.45
2022-12-15T03:14:02.929Z,998.46
2022-12-15T03:15:03.814Z,998.47
2022-12-15T03:16:02.987Z,998.43
2022-12-15T03:17:02.859Z,998.47
2022-12-15T03:18:02.927Z,998.44
2022-12-15T03:19:02.971Z,998.50
2022-12-15T03:20:02.876Z,998.43
2022-12-15T03:21:04.274Z,998.48
2022-12-15T03:22:02.832Z,998.46
2022-12-15T03:23:02.873Z,998.49
2022-12-15T03:24:02.823Z,998.44
2022-12-15T03:25:02.822Z,998.47
2022-12-15T03:26:02.821Z,998.45
2022-12-15T03:27:02.827Z,998.45
2022-12-15T03:28:02.789Z,998.46
2022-12-15T03:29:02.744Z,998.45
2022-12-15T03:30:02.797Z,998.52
2022-12-15T03:31:02.710Z,998.52
2022-12-15T03:32:02.786Z,998.65
2022-12-15T03:33:02.713Z,998.62
2022-12-15T03:34:02.865Z,998.76
2022-12-15T03:35:03.914Z,998.76
2022-12-15T03:36:02.814Z,998.78
2022-12-15T03:37:02.677Z,998.77
2022-12-15T03:38:02.662Z,998.79
2022-12-15T03:39:02.638Z,998.80
2022-12-15T03:40:02.708Z,998.81
2022-12-15T03:41:03.148Z,998.83
2022-12-15T03:42:02.617Z,998.90
2022-12-15T03:43:02.728Z,998.91
2022-12-15T03:44:02.606Z,998.89
2022-12-15T03:45:02.652Z,998.88
2022-12-15T03:46:03.453Z,998.90
2022-12-15T03:47:03.800Z,998.87
2022-12-15T03:48:02.518Z,998.92
2022-12-15T03:49:02.512Z,998.95
2022-12-15T03:50:02.489Z,998.94
2022-12-15T03:51:02.531Z,998.97
2022-12-15T03:52:02.517Z,998.96
2022-12-15T03:53:02.477Z,999.01
2022-12-15T03:54:02.464Z,998.94
2022-12-15T03:55:03.182Z,999.02
2022-12-15T03:56:02.476Z,999.01
2022-12-15T03:57:02.453Z,998.96
2022-12-15T03:58:02.422Z,998.97
2022-12-15T03:59:03.671Z,998.96
2022-12-15T04:00:02.421Z,998.89
2022-12-15T04:01:02.778Z,998.90
2022-12-15T04:02:02.637Z,998.96
2022-12-15T04:03:02.511Z,998.98
2022-12-15T04:04:02.570Z,998.97
2022-12-15T04:05:02.845Z,998.93
2022-12-15T04:06:02.364Z,998.97
2022-12-15T04:07:02.423Z,999.00
2022-12-15T04:08:02.327Z,999.03
2022-12-15T04:09:02.297Z,999.01
2022-12-15T04:10:02.281Z,999.03
2022-12-15T04:11:02.263Z,999.01
2022-12-15T04:12:03.448Z,999.09
2022-12-15T04:13:02.252Z,999.04
2022-12-15T04:14:02.236Z,999.02
2022-12-15T04:15:03.232Z,999.03
2022-12-15T04:16:02.204Z,998.97
2022-12-15T04:17:02.298Z,998.93
2022-12-15T04:18:02.202Z,998.96
2022-12-15T04:19:02.193Z,998.96
2022-12-15T04:20:02.198Z,999.03
2022-12-15T04:21:02.171Z,999.09
2022-12-15T04:22:02.142Z,999.12
2022-12-15T04:23:02.190Z,999.09
2022-12-15T04:24:02.147Z,999.15
2022-12-15T04:25:02.108Z,999.12
2022-12-15T04:26:02.232Z,999.11
2022-12-15T04:27:02.808Z,999.13
2022-12-15T04:28:02.115Z,999.11
2022-12-15T04:29:02.110Z,999.18
2022-12-15T04:30:02.155Z,999.17
2022-12-15T04:31:02.129Z,999.17
2022-12-15T04:32:02.064Z,999.15
2022-12-15T04:33:02.033Z,999.14
2022-12-15T04:34:01.993Z,999.07
2022-12-15T04:35:02.299Z,999.08
2022-12-15T04:36:01.997Z,999.09
2022-12-15T04:37:02.024Z,999.10
2022-12-15T04:38:02.094Z,999.10
2022-12-15T04:39:01.969Z,999.08
2022-12-15T04:40:01.934Z,999.10
2022-12-15T04:41:01.949Z,999.11
2022-12-15T04:42:01.906Z,999.08
2022-12-15T04:43:01.884Z,999.09
2022-12-15T04:44:01.922Z,999.07
2022-12-15T04:45:03.343Z,999.10
2022-12-15T04:46:01.968Z,999.11
2022-12-15T04:47:01.832Z,999.13
2022-12-15T04:48:01.889Z,999.14
2022-12-15T04:49:01.926Z,999.13
2022-12-15T04:50:02.102Z,999.17
2022-12-15T04:51:01.804Z,999.15
2022-12-15T04:52:01.806Z,999.22
2022-12-15T04:53:01.821Z,999.23
2022-12-15T04:54:01.802Z,999.20
2022-12-15T04:55:01.781Z,999.18
2022-12-15T04:56:01.756Z,999.25
2022-12-15T04:57:01.761Z,999.24
2022-12-15T04:58:01.741Z,999.30
2022-12-15T04:59:01.730Z,999.27
2022-12-15T05:00:01.693Z,999.23
2022-12-15T05:01:01.798Z,999.24
2022-12-15T05:02:03.293Z,999.20
2022-12-15T05:03:02.643Z,999.21
2022-12-15T05:04:01.794Z,999.26
2022-12-15T05:05:02.452Z,999.25
2022-12-15T05:06:01.630Z,999.26
2022-12-15T05:07:01.613Z,999.28
2022-12-15T05:08:01.641Z,999.28
2022-12-15T05:09:01.597Z,999.26
2022-12-15T05:10:03.392Z,999.28
2022-12-15T05:11:01.593Z,999.35
2022-12-15T05:12:01.543Z,999.34
2022-12-15T05:13:01.609Z,999.31
2022-12-15T05:14:01.545Z,999.37
2022-12-15T05:15:02.502Z,999.38
2022-12-15T05:16:01.626Z,999.38
2022-12-15T05:17:01.555Z,999.39
2022-12-15T05:18:01.512Z,999.39
2022-12-15T05:19:01.520Z,999.34
2022-12-15T05:20:01.523Z,999.38
2022-12-15T05:21:01.492Z,999.36
2022-12-15T05:22:01.460Z,999.36
2022-12-15T05:23:01.457Z,999.36
2022-12-15T05:24:01.468Z,999.39
2022-12-15T05:25:01.440Z,999.39
2022-12-15T05:26:01.620Z,999.43
2022-12-15T05:27:01.387Z,999.42
2022-12-15T05:28:01.401Z,999.45
2022-12-15T05:29:02.221Z,999.41
2022-12-15T05:30:01.399Z,999.39
2022-12-15T05:31:01.447Z,999.41
2022-12-15T05:32:02.000Z,999.46
2022-12-15T05:33:01.297Z,999.42
2022-12-15T05:34:05.478Z,999.45
2022-12-15T05:35:02.131Z,999.41
2022-12-15T05:36:02.540Z,999.43
2022-12-15T05:37:01.328Z,999.43
2022-12-15T05:38:01.291Z,999.45
2022-12-15T05:39:01.301Z,999.44
2022-12-15T05:40:01.395Z,999.46
2022-12-15T05:41:01.462Z,999.43
2022-12-15T05:42:01.327Z,999.48
2022-12-15T05:43:01.270Z,999.44
2022-12-15T05:44:01.402Z,999.47
2022-12-15T05:45:01.783Z,999.50
2022-12-15T05:46:01.316Z,999.49
2022-12-15T05:47:02.401Z,999.49
2022-12-15T05:48:01.272Z,999.48
2022-12-15T05:49:01.161Z,999.55
2022-12-15T05:50:01.120Z,999.55
2022-12-15T05:51:01.120Z,999.54
2022-12-15T05:52:01.099Z,999.62
2022-12-15T05:53:01.087Z,999.62
2022-12-15T05:54:01.101Z,999.66
2022-12-15T05:55:02.043Z,999.67
2022-12-15T05:56:01.110Z,999.64
2022-12-15T05:57:01.084Z,999.61
2022-12-15T05:58:01.097Z,999.64
2022-12-15T05:59:01.022Z,999.64
2022-12-15T06:00:02.287Z,999.63
2022-12-15T06:01:02.192Z,999.65
2022-12-15T06:02:01.205Z,999.69
2022-12-15T06:03:01.037Z,999.68
2022-12-15T06:04:01.035Z,999.73
2022-12-15T06:05:01.122Z,999.67
2022-12-15T06:06:01.190Z,999.66
2022-12-15T06:07:00.992Z,999.70
2022-12-15T06:08:01.009Z,999.69
2022-12-15T06:09:00.914Z,999.72
2022-12-15T06:10:01.835Z,999.73
2022-12-15T06:11:00.998Z,999.73
2022-12-15T06:12:00.865Z,999.72
2022-12-15T06:13:01.349Z,999.75
2022-12-15T06:14:00.868Z,999.76
2022-12-15T06:15:00.841Z,999.74
2022-12-15T06:16:00.884Z,999.82
2022-12-15T06:17:00.879Z,999.84
2022-12-15T06:18:00.887Z,999.83
2022-12-15T06:19:02.275Z,999.87
2022-12-15T06:20:00.867Z,999.88
2022-12-15T06:21:00.790Z,999.90
2022-12-15T06:22:00.787Z,999.92
2022-12-15T06:23:00.770Z,999.94
2022-12-15T06:24:00.808Z,999.91
2022-12-15T06:25:00.721Z,999.93
2022-12-15T06:26:00.706Z,999.90
2022-12-15T06:27:00.745Z,999.98
2022-12-15T06:28:02.003Z,1000.00
2022-12-15T06:29:00.758Z,999.99
2022-12-15T06:30:00.747Z,999.97
2022-12-15T06:31:00.754Z,999.93
2022-12-15T06:32:00.869Z,999.98
2022-12-15T06:33:00.910Z,999.92
2022-12-15T06:34:02.398Z,999.91
2022-12-15T06:35:01.648Z,999.93
2022-12-15T06:36:00.592Z,999.97
2022-12-15T06:37:00.607Z,999.98
2022-12-15T06:38:00.588Z,1000.00
2022-12-15T06:39:01.622Z,1000.07
2022-12-15T06:40:01.546Z,1000.07
2022-12-15T06:41:00.564Z,1000.06
2022-12-15T06:42:00.596Z,1000.05
2022-12-15T06:43:00.509Z,1000.10
2022-12-15T06:44:01.337Z,1000.11
2022-12-15T06:45:00.570Z,1000.08
2022-12-15T06:46:00.646Z,1000.04
2022-12-15T06:47:00.643Z,1000.06
2022-12-15T06:48:01.618Z,1000.08
2022-12-15T06:49:00.430Z,1000.05
2022-12-15T06:50:00.476Z,1000.07
2022-12-15T06:51:00.428Z,1000.15
2022-12-15T06:52:00.398Z,1000.11
2022-12-15T06:53:00.441Z,1000.10
2022-12-15T06:54:00.480Z,1000.13
2022-12-15T06:55:00.618Z,1000.12
2022-12-15T06:56:01.005Z,1000.12
2022-12-15T06:57:01.425Z,1000.17
2022-12-15T06:58:00.328Z,1000.14
2022-12-15T06:59:00.368Z,1000.16
2022-12-15T07:00:00.299Z,1000.17
2022-12-15T07:01:00.323Z,1000.21
2022-12-15T07:02:00.505Z,1000.15
2022-12-15T07:03:00.419Z,1000.24
2022-12-15T07:04:00.698Z,1000.26
2022-12-15T07:05:00.313Z,1000.25
2022-12-15T07:06:00.265Z,1000.31
2022-12-15T07:07:00.240Z,1000.29
2022-12-15T07:08:00.228Z,1000.36
2022-12-15T07:09:00.227Z,1000.36
2022-12-15T07:10:01.199Z,1000.43
2022-12-15T07:11:01.001Z,1000.39
2022-12-15T07:12:00.226Z,1000.43
2022-12-15T07:13:00.201Z,1000.44
2022-12-15T07:14:00.134Z,1000.43
2022-12-15T07:15:00.627Z,1000.39
2022-12-15T07:16:00.166Z,1000.38
2022-12-15T07:17:00.112Z,1000.37
2022-12-15T07:18:00.947Z,1000.34
2022-12-15T07:19:00.143Z,1000.34
2022-12-15T07:20:00.158Z,1000.38
2022-12-15T07:21:00.078Z,1000.36
2022-12-15T07:22:00.086Z,1000.43
2022-12-15T07:23:00.218Z,1000.43
2022-12-15T07:24:01.188Z,1000.42
2022-12-15T07:25:00.083Z,1000.43
2022-12-15T07:26:04.205Z,1000.41
2022-12-15T07:27:01.131Z,1000.48
2022-12-15T07:28:00.020Z,1000.49
2022-12-15T07:29:00.020Z,1000.44
2022-12-15T07:30:00.849Z,1000.47
2022-12-15T07:31:00.243Z,1000.45
2022-12-15T07:32:01.118Z,1000.50
2022-12-15T07:32:59.940Z,1000.54
2022-12-15T07:34:00.022Z,1000.56
2022-12-15T07:34:59.968Z,1000.51
2022-12-15T07:36:00.282Z,1000.57
2022-12-15T07:36:59.996Z,1000.57
2022-12-15T07:37:59.977Z,1000.60
2022-12-15T07:38:59.979Z,1000.62
2022-12-15T07:39:59.844Z,1000.59
2022-12-15T07:40:59.866Z,1000.61
2022-12-15T07:41:59.864Z,1000.60
2022-12-15T07:43:00.600Z,1000.67
2022-12-15T07:43:59.842Z,1000.70
2022-12-15T07:44:59.816Z,1000.69
2022-12-15T07:46:00.105Z,1000.68
2022-12-15T07:46:59.816Z,1000.70
2022-12-15T07:48:00.011Z,1000.76
2022-12-15T07:49:00.036Z,1000.77
2022-12-15T07:49:59.800Z,1000.80
2022-12-15T07:51:08.481Z,1000.86
2022-12-15T07:52:00.711Z,1000.91
2022-12-15T07:52:59.717Z,1000.89
2022-12-15T07:54:00.181Z,1000.89
2022-12-15T07:55:00.667Z,1000.89
2022-12-15T07:56:07.357Z,1000.93
2022-12-15T07:57:00.654Z,1000.93
2022-12-15T07:57:59.696Z,1000.92
2022-12-15T07:58:59.716Z,1000.92
2022-12-15T07:59:59.640Z,1000.95
2022-12-15T08:00:59.709Z,1001.02
2022-12-15T08:01:59.856Z,1001.02
2022-12-15T08:02:59.702Z,1001.09
2022-12-15T08:03:59.625Z,1001.16
2022-12-15T08:04:59.590Z,1001.14
2022-12-15T08:06:03.972Z,1001.10
2022-12-15T08:06:59.597Z,1001.16
2022-12-15T08:07:59.583Z,1001.18
2022-12-15T08:08:59.556Z,1001.13
2022-12-15T08:09:59.516Z,1001.18
2022-12-15T08:10:59.628Z,1001.15
2022-12-15T08:11:59.495Z,1001.19
2022-12-15T08:12:59.514Z,1001.24
2022-12-15T08:14:03.060Z,1001.25
2022-12-15T08:15:00.478Z,1001.17
2022-12-15T08:15:59.646Z,1001.24
2022-12-15T08:16:59.462Z,1001.22
2022-12-15T08:17:59.410Z,1001.26
2022-12-15T08:18:59.419Z,1001.21
2022-12-15T08:20:01.419Z,1001.24
2022-12-15T08:21:00.532Z,1001.24
2022-12-15T08:21:59.407Z,1001.20
2022-12-15T08:22:59.405Z,1001.24
2022-12-15T08:23:59.401Z,1001.29
2022-12-15T08:24:59.387Z,1001.29
2022-12-15T08:25:59.347Z,1001.28
2022-12-15T08:27:00.325Z,1001.29
2022-12-15T08:27:59.328Z,1001.29
2022-12-15T08:29:17.479Z,1001.27
2022-12-15T08:30:00.361Z,1001.31
2022-12-15T08:30:59.298Z,1001.31
2022-12-15T08:31:59.375Z,1001.33
2022-12-15T08:32:59.277Z,1001.31
2022-12-15T08:33:59.982Z,1001.37
2022-12-15T08:34:59.348Z,1001.36
2022-12-15T08:35:59.228Z,1001.34
2022-12-15T08:36:59.207Z,1001.29
2022-12-15T08:38:03.817Z,1001.35
2022-12-15T08:39:01.360Z,1001.33
2022-12-15T08:39:59.236Z,1001.36
2022-12-15T08:40:59.195Z,1001.30
2022-12-15T08:41:59.138Z,1001.35
2022-12-15T08:42:59.136Z,1001.36
2022-12-15T08:43:59.126Z,1001.36
2022-12-15T08:44:59.257Z,1001.39
2022-12-15T08:45:59.268Z,1001.34
2022-12-15T08:46:59.138Z,1001.38
2022-12-15T08:47:59.131Z,1001.38
2022-12-15T08:48:59.056Z,1001.41
2022-12-15T08:49:59.066Z,1001.38
2022-12-15T08:50:59.024Z,1001.40
2022-12-15T08:51:59.097Z,1001.42
2022-12-15T08:53:28.932Z,1001.36
2022-12-15T08:54:00.009Z,1001.30
2022-12-15T08:54:59.401Z,1001.30
2022-12-15T08:55:58.993Z,1001.34
2022-12-15T08:56:59.041Z,1001.34
2022-12-15T08:57:58.988Z,1001.38
2022-12-15T08:58:58.948Z,1001.42
2022-12-15T08:59:58.925Z,1001.46
2022-12-15T09:00:59.427Z,1001.51
2022-12-15T09:01:59.038Z,1001.53
2022-12-15T09:02:58.907Z,1001.58
2022-12-15T09:03:58.921Z,1001.57
2022-12-15T09:04:59.638Z,1001.57
2022-12-15T09:05:59.367Z,1001.63
2022-12-15T09:06:59.096Z,1001.65
2022-12-15T09:08:04.621Z,1001.60
2022-12-15T09:08:59.835Z,1001.64
2022-12-15T09:09:58.830Z,1001.63
2022-12-15T09:10:58.848Z,1001.63
2022-12-15T09:11:58.910Z,1001.62
2022-12-15T09:12:58.827Z,1001.58
2022-12-15T09:13:58.780Z,1001.58
2022-12-15T09:14:58.803Z,1001.62
2022-12-15T09:16:13.988Z,1001.66
2022-12-15T09:16:59.778Z,1001.62
2022-12-15T09:17:59.668Z,1001.61
2022-12-15T09:18:58.763Z,1001.64
2022-12-15T09:19:58.706Z,1001.63
2022-12-15T09:20:58.718Z,1001.58
2022-12-15T09:21:58.680Z,1001.56
2022-12-15T09:22:58.778Z,1001.58
2022-12-15T09:23:58.643Z,1001.56
2022-12-15T09:24:59.509Z,1001.55
2022-12-15T09:25:58.650Z,1001.55
2022-12-15T09:26:58.630Z,1001.56
2022-12-15T09:27:58.650Z,1001.56
2022-12-15T09:28:58.598Z,1001.56
2022-12-15T09:29:58.667Z,1001.59
2022-12-15T09:30:58.696Z,1001.58
2022-12-15T09:31:58.558Z,1001.55
2022-12-15T09:32:58.525Z,1001.60
2022-12-15T09:33:58.616Z,1001.60
2022-12-15T09:34:58.515Z,1001.58
2022-12-15T09:35:58.649Z,1001.56
2022-12-15T09:36:58.517Z,1001.56
2022-12-15T09:37:58.528Z,1001.60
2022-12-15T09:38:58.490Z,1001.62
2022-12-15T09:39:58.464Z,1001.63
2022-12-15T09:40:58.474Z,1001.59
2022-12-15T09:41:58.575Z,1001.59
2022-12-15T09:43:25.643Z,1001.57
2022-12-15T09:44:00.930Z,1001.60
2022-12-15T09:44:59.628Z,1001.66
2022-12-15T09:45:58.582Z,1001.67
2022-12-15T09:46:58.419Z,1001.61
2022-12-15T09:47:58.444Z,1001.65
2022-12-15T09:48:58.421Z,1001.69
2022-12-15T09:49:58.525Z,1001.67
2022-12-15T09:50:58.327Z,1001.73
2022-12-15T09:51:58.329Z,1001.73
2022-12-15T09:52:58.337Z,1001.77
2022-12-15T09:53:58.943Z,1001.80
2022-12-15T09:54:58.973Z,1001.84
2022-12-15T09:55:59.234Z,1001.85
2022-12-15T09:56:58.423Z,1001.84
2022-12-15T09:57:58.252Z,1001.85
2022-12-15T09:58:58.259Z,1001.84
2022-12-15T09:59:58.296Z,1001.81
2022-12-15T10:00:58.244Z,1001.81
2022-12-15T10:01:58.402Z,1001.80
2022-12-15T10:02:58.338Z,1001.79
2022-12-15T10:03:58.274Z,1001.82
2022-12-15T10:04:59.249Z,1001.80
2022-12-15T10:06:59.131Z,1001.90
2022-12-15T10:07:58.440Z,1001.83
2022-12-15T10:08:58.293Z,1001.89
2022-12-15T10:09:58.180Z,1001.87
2022-12-15T10:10:58.297Z,1001.87
2022-12-15T10:11:58.107Z,1001.95
2022-12-15T10:13:02.320Z,1001.94
2022-12-15T10:13:58.087Z,1001.92
2022-12-15T10:14:59.307Z,1001.92
2022-12-15T10:15:58.109Z,1001.88
2022-12-15T10:16:58.097Z,1001.84
2022-12-15T10:17:58.012Z,1001.87
2022-12-15T10:19:01.360Z,1001.87
2022-12-15T10:19:57.989Z,1001.86
2022-12-15T10:20:58.735Z,1001.88
2022-12-15T10:21:58.008Z,1001.87
2022-12-15T10:22:58.703Z,1001.96
2022-12-15T10:23:57.957Z,1001.98
2022-12-15T10:25:14.238Z,1001.99
2022-12-15T10:25:59.051Z,1001.96
2022-12-15T10:26:57.904Z,1001.95
2022-12-15T10:27:57.898Z,1001.98
2022-12-15T10:28:59.011Z,1002.02
2022-12-15T10:29:57.938Z,1001.99
2022-12-15T10:30:57.960Z,1001.96
2022-12-15T10:31:57.869Z,1001.96
2022-12-15T10:32:57.816Z,1001.97
2022-12-15T10:33:58.561Z,1001.91
2022-12-15T10:34:58.017Z,1001.92
2022-12-15T10:35:57.882Z,1001.87
2022-12-15T10:36:57.798Z,1001.79
2022-12-15T10:37:57.800Z,1001.85
2022-12-15T10:38:57.774Z,1001.82
2022-12-15T10:39:57.738Z,1001.85
2022-12-15T10:40:57.735Z,1001.83
2022-12-15T10:41:57.807Z,1001.90
2022-12-15T10:42:58.255Z,1001.96
2022-12-15T10:43:57.697Z,1001.93
2022-12-15T10:44:58.097Z,1001.93
2022-12-15T10:45:57.780Z,1002.01
2022-12-15T10:46:57.724Z,1001.99
2022-12-15T10:47:57.689Z,1002.00
2022-12-15T10:48:57.659Z,1002.02
2022-12-15T10:49:57.647Z,1001.99
2022-12-15T10:50:57.652Z,1002.02
2022-12-15T10:51:57.633Z,1002.02
2022-12-15T10:52:57.660Z,1002.05
2022-12-15T10:53:57.609Z,1002.06
2022-12-15T10:54:57.667Z,1002.06
2022-12-15T10:55:57.626Z,1002.07
2022-12-15T10:56:57.969Z,1002.05
2022-12-15T10:57:57.540Z,1002.06
2022-12-15T10:58:57.927Z,1002.08
2022-12-15T10:59:57.659Z,1002.07
2022-12-15T11:00:57.514Z,1002.09
2022-12-15T11:01:57.647Z,1002.09
2022-12-15T11:02:57.933Z,1002.11
2022-12-15T11:03:57.697Z,1002.10
2022-12-15T11:04:57.479Z,1002.10
2022-12-15T11:05:57.427Z,1002.16
2022-12-15T11:06:57.589Z,1002.16
2022-12-15T11:07:57.472Z,1002.21
2022-12-15T11:08:57.401Z,1002.16
2022-12-15T11:09:57.443Z,1002.18
2022-12-15T11:10:57.402Z,1002.19
2022-12-15T11:11:57.400Z,1002.21
2022-12-15T11:12:58.737Z,1002.17
2022-12-15T11:13:57.406Z,1002.15
2022-12-15T11:14:57.339Z,1002.18
2022-12-15T11:15:57.301Z,1002.15
2022-12-15T11:16:57.343Z,1002.19
2022-12-15T11:17:57.391Z,1002.17
2022-12-15T11:18:57.298Z,1002.22
2022-12-15T11:20:02.363Z,1002.15
2022-12-15T11:20:58.269Z,1002.24
2022-12-15T11:21:57.238Z,1002.14
2022-12-15T11:22:57.249Z,1002.18
2022-12-15T11:23:57.229Z,1002.15
2022-12-15T11:24:57.947Z,1002.08
2022-12-15T11:25:58.171Z,1002.10
2022-12-15T11:26:57.194Z,1002.06
2022-12-15T11:27:57.184Z,1002.09
2022-12-15T11:28:57.278Z,1002.12
2022-12-15T11:29:57.155Z,1002.09
2022-12-15T11:30:57.146Z,1002.10
2022-12-15T11:32:00.078Z,1002.10
2022-12-15T11:32:58.121Z,1002.09
2022-12-15T11:33:57.181Z,1002.04
2022-12-15T11:34:57.135Z,1002.10
2022-12-15T11:35:57.103Z,1002.10
2022-12-15T11:36:57.048Z,1002.06
2022-12-15T11:37:57.047Z,1002.11
2022-12-15T11:38:57.099Z,1002.10
2022-12-15T11:39:57.158Z,1002.19
2022-12-15T11:40:57.013Z,1002.12
2022-12-15T11:41:57.066Z,1002.17
2022-12-15T11:42:57.049Z,1002.22
2022-12-15T11:43:59.779Z,1002.22
2022-12-15T11:44:57.310Z,1002.21
2022-12-15T11:45:56.942Z,1002.25
2022-12-15T11:46:56.958Z,1002.20
2022-12-15T11:47:56.910Z,1002.21
2022-12-15T11:48:56.930Z,1002.17
2022-12-15T11:49:56.981Z,1002.15
2022-12-15T11:50:56.937Z,1002.15
2022-12-15T11:51:56.901Z,1002.15
2022-12-15T11:52:56.883Z,1002.12
2022-12-15T11:53:56.860Z,1002.14
2022-12-15T11:54:56.824Z,1002.07
2022-12-15T11:55:56.859Z,1002.09
2022-12-15T11:56:56.817Z,1002.13
2022-12-15T11:57:56.984Z,1002.15
2022-12-15T11:58:56.831Z,1002.13
2022-12-15T11:59:56.792Z,1002.14
2022-12-15T12:00:56.790Z,1002.17
2022-12-15T12:02:02.786Z,1002.26
2022-12-15T12:02:57.839Z,1002.24
2022-12-15T12:03:57.549Z,1002.33
2022-12-15T12:04:56.749Z,1002.23
2022-12-15T12:05:56.709Z,1002.23
2022-12-15T12:06:56.723Z,1002.24
2022-12-15T12:07:56.678Z,1002.25
2022-12-15T12:08:56.650Z,1002.26
2022-12-15T12:09:56.674Z,1002.27
2022-12-15T12:10:56.708Z,1002.25
2022-12-15T12:11:56.695Z,1002.28
2022-12-15T12:12:56.662Z,1002.30
2022-12-15T12:13:56.623Z,1002.33
2022-12-15T12:14:56.576Z,1002.31
2022-12-15T12:15:57.420Z,1002.30
2022-12-15T12:16:56.566Z,1002.30
2022-12-15T12:17:56.590Z,1002.22